Time;durP1;ratioP1;P1;durP2;ratioP2;P2;SDS_P1;SDS_P2;PMS_P1;PMS_P2;Temp;Humidity;BMP_temperature;BMP_pressure;BME280_temperature;BME280_humidity;BME280_pressure;Samples;Min_cycle;Max_cycle;Signal;HPM_P1;HPM_P2
2023/05/23 00:00:59;;;;;;;0.10;0.10;;;14.00;99.90;;;;;;5026173;28;20022;-71
2023/05/23 00:03:26;;;;;;;0.10;0.10;;;14.00;99.90;;;;;;5016756;28;20029;-70
2023/05/23 00:05:51;;;;;;;0.10;0.10;;;14.00;99.90;;;;;;5026111;28;20104;-71
2023/05/23 00:08:17;;;;;;;0.10;0.10;;;14.10;99.90;;;;;;5028246;28;20467;-71
2023/05/23 00:10:44;;;;;;;0.10;0.10;;;14.00;99.90;;;;;;5029907;28;20479;-71
2023/05/23 00:13:13;;;;;;;0.10;0.10;;;14.00;99.90;;;;;;5032711;28;20037;-71
2023/05/23 00:15:40;;;;;;;0.10;0.10;;;14.00;99.90;;;;;;5032901;28;20107;-70
2023/05/23 00:18:07;;;;;;;0.10;0.10;;;14.00;99.90;;;;;;5021936;28;20139;-71
2023/05/23 00:20:35;;;;;;;0.10;0.10;;;14.00;99.90;;;;;;5028409;28;20022;-71
2023/05/23 00:23:02;;;;;;;0.10;0.10;;;14.00;99.90;;;;;;5032384;28;20041;-70
2023/05/23 00:25:32;;;;;;;0.13;0.13;;;14.00;99.90;;;;;;5033020;28;20057;-71
2023/05/23 00:27:59;;;;;;;0.10;0.10;;;14.00;99.90;;;;;;5032762;28;20037;-70
2023/05/23 00:30:25;;;;;;;0.10;0.10;;;14.00;99.90;;;;;;5032738;28;20025;-71
2023/05/23 00:32:53;;;;;;;0.10;0.10;;;14.00;99.90;;;;;;5032535;28;20022;-70
2023/05/23 00:35:19;;;;;;;0.10;0.10;;;14.00;99.90;;;;;;5032784;28;20025;-71
2023/05/23 00:37:44;;;;;;;0.10;0.10;;;14.00;99.90;;;;;;5032204;28;20053;-70
2023/05/23 00:40:10;;;;;;;0.10;0.10;;;14.00;99.90;;;;;;5032665;28;20443;-70
2023/05/23 00:42:36;;;;;;;0.20;0.20;;;14.00;99.90;;;;;;5032899;28;20021;-70
2023/05/23 00:45:01;;;;;;;0.10;0.10;;;14.00;99.90;;;;;;5032556;28;20075;-71
2023/05/23 00:47:28;;;;;;;0.10;0.10;;;14.00;99.90;;;;;;5032936;28;20147;-71
2023/05/23 00:49:53;;;;;;;0.20;0.20;;;14.00;99.90;;;;;;5019336;28;20033;-71
2023/05/23 00:52:19;;;;;;;0.10;0.10;;;14.00;99.90;;;;;;5025566;28;20029;-71
2023/05/23 00:54:45;;;;;;;0.10;0.10;;;13.90;99.90;;;;;;5025377;28;20479;-71
2023/05/23 00:57:10;;;;;;;0.10;0.10;;;14.00;99.90;;;;;;5035940;28;20104;-71
2023/05/23 00:59:37;;;;;;;0.10;0.10;;;14.00;99.90;;;;;;5036262;28;20382;-71
2023/05/23 01:02:03;;;;;;;0.00;0.00;;;13.90;99.90;;;;;;5034048;28;20479;-71
2023/05/23 01:04:32;;;;;;;0.10;0.10;;;13.90;99.90;;;;;;5024661;28;20076;-71
2023/05/23 01:06:59;;;;;;;0.10;0.10;;;13.90;99.90;;;;;;5020198;28;20088;-71
2023/05/23 01:09:27;;;;;;;0.10;0.10;;;13.90;99.90;;;;;;5035981;28;20030;-71
2023/05/23 01:12:33;;;;;;;0.20;0.20;;;13.90;99.90;;;;;;5030278;28;20396;-70
2023/05/23 01:15:20;;;;;;;0.10;0.10;;;13.80;99.90;;;;;;4986209;28;20466;-71
2023/05/23 01:17:49;;;;;;;0.20;0.20;;;13.80;99.90;;;;;;5015827;28;20491;-70
2023/05/23 01:20:22;;;;;;;0.20;0.20;;;13.80;99.90;;;;;;5016221;28;20030;-71
2023/05/23 01:23:00;;;;;;;0.20;0.20;;;13.70;99.90;;;;;;5016239;28;20033;-70
2023/05/23 01:25:32;;;;;;;0.10;0.10;;;13.70;99.90;;;;;;5015842;28;20028;-71
2023/05/23 01:28:04;;;;;;;0.10;0.10;;;13.80;99.90;;;;;;5015637;28;20034;-71
2023/05/23 01:30:38;;;;;;;0.10;0.10;;;13.80;99.90;;;;;;5016072;28;20030;-70
2023/05/23 01:33:05;;;;;;;0.10;0.10;;;13.80;99.90;;;;;;5020675;28;20047;-71
2023/05/23 01:35:31;;;;;;;0.10;0.10;;;13.70;99.90;;;;;;5035394;28;20025;-71
2023/05/23 01:37:57;;;;;;;0.10;0.10;;;13.70;99.90;;;;;;5035158;28;20022;-71
2023/05/23 01:40:23;;;;;;;0.10;0.10;;;13.70;99.90;;;;;;5035136;28;20060;-71
2023/05/23 01:42:49;;;;;;;0.20;0.20;;;13.70;99.90;;;;;;5034957;28;20048;-71
2023/05/23 01:45:16;;;;;;;0.10;0.10;;;13.80;99.90;;;;;;5035221;28;20034;-71
2023/05/23 01:47:42;;;;;;;0.10;0.10;;;13.80;99.90;;;;;;5034685;28;20025;-71
2023/05/23 01:50:09;;;;;;;0.15;0.15;;;13.70;99.90;;;;;;5035185;28;20033;-70
2023/05/23 01:52:35;;;;;;;0.10;0.10;;;13.70;99.90;;;;;;5035011;28;20076;-71
2023/05/23 01:55:05;;;;;;;0.20;0.20;;;13.70;99.90;;;;;;5035152;28;20025;-70
2023/05/23 01:57:32;;;;;;;0.20;0.20;;;13.70;99.90;;;;;;5034952;28;20025;-71
2023/05/23 01:59:58;;;;;;;0.10;0.10;;;13.70;99.90;;;;;;5034587;28;20021;-70
2023/05/23 02:02:23;;;;;;;0.20;0.20;;;13.70;99.90;;;;;;5034867;28;20513;-71
2023/05/23 02:04:49;;;;;;;0.10;0.10;;;13.60;99.90;;;;;;5034901;28;20022;-70
2023/05/23 02:07:14;;;;;;;0.10;0.10;;;13.60;99.90;;;;;;5034817;28;20027;-72
2023/05/23 02:09:40;;;;;;;0.20;0.20;;;13.50;99.90;;;;;;5035067;28;20113;-71
2023/05/23 02:12:06;;;;;;;0.20;0.20;;;13.50;99.90;;;;;;5035033;28;20029;-70
2023/05/23 02:14:32;;;;;;;0.10;0.10;;;13.40;99.90;;;;;;5034674;28;20035;-71
2023/05/23 02:16:59;;;;;;;0.10;0.10;;;13.40;99.90;;;;;;5034894;28;20022;-71
2023/05/23 02:19:25;;;;;;;0.15;0.15;;;13.40;99.90;;;;;;5034757;28;20045;-71
2023/05/23 02:21:51;;;;;;;0.10;0.10;;;13.30;99.90;;;;;;5034638;28;20025;-70
2023/05/23 02:24:16;;;;;;;0.10;0.10;;;13.30;99.90;;;;;;5034487;28;20040;-71
2023/05/23 02:26:42;;;;;;;0.20;0.20;;;13.20;99.90;;;;;;5034538;28;20037;-71
2023/05/23 02:29:07;;;;;;;0.10;0.10;;;13.20;99.90;;;;;;5034326;28;20048;-71
2023/05/23 02:31:33;;;;;;;0.10;0.10;;;13.10;99.90;;;;;;5034695;28;20422;-70
2023/05/23 02:33:58;;;;;;;0.20;0.20;;;13.10;99.90;;;;;;5034205;28;20425;-71
2023/05/23 02:36:24;;;;;;;0.13;0.13;;;13.10;99.90;;;;;;5034862;28;20028;-70
2023/05/23 02:38:50;;;;;;;0.10;0.10;;;13.10;99.90;;;;;;5034250;28;20028;-71
2023/05/23 02:41:15;;;;;;;0.10;0.10;;;13.10;99.90;;;;;;5034783;28;20075;-70
2023/05/23 02:43:41;;;;;;;0.20;0.20;;;13.00;99.90;;;;;;5034114;28;20030;-71
2023/05/23 02:46:06;;;;;;;0.15;0.15;;;13.00;99.90;;;;;;5034136;28;20040;-70
2023/05/23 02:48:32;;;;;;;0.10;0.10;;;13.00;99.90;;;;;;5034579;28;20033;-71
2023/05/23 02:50:57;;;;;;;0.10;0.10;;;13.00;99.90;;;;;;5033983;28;20030;-71
2023/05/23 02:53:23;;;;;;;0.10;0.10;;;13.00;99.90;;;;;;5034201;28;20038;-70
2023/05/23 02:55:48;;;;;;;0.20;0.20;;;13.00;99.90;;;;;;5033973;28;20485;-71
2023/05/23 02:58:15;;;;;;;0.20;0.20;;;12.90;99.90;;;;;;5033865;28;20029;-71
2023/05/23 03:00:42;;;;;;;0.20;0.20;;;12.90;99.90;;;;;;5033858;28;20018;-71
2023/05/23 03:03:08;;;;;;;0.10;0.10;;;12.80;99.90;;;;;;5033847;28;20490;-70
2023/05/23 03:05:33;;;;;;;0.10;0.10;;;12.80;99.90;;;;;;5033841;28;20039;-71
2023/05/23 03:07:59;;;;;;;0.15;0.15;;;12.80;99.90;;;;;;5033660;28;20041;-71
2023/05/23 03:10:24;;;;;;;0.20;0.20;;;12.80;99.90;;;;;;5033792;28;20026;-71
2023/05/23 03:12:50;;;;;;;0.20;0.20;;;12.80;99.90;;;;;;5033850;28;20029;-70
2023/05/23 03:15:15;;;;;;;0.20;0.20;;;12.80;99.90;;;;;;5033542;28;20475;-71
2023/05/23 03:17:41;;;;;;;0.20;0.20;;;12.80;99.90;;;;;;5029820;28;20014;-71
2023/05/23 03:20:08;;;;;;;0.10;0.10;;;12.80;99.90;;;;;;5013970;28;20100;-71
2023/05/23 03:22:35;;;;;;;0.20;0.20;;;12.80;99.90;;;;;;5013557;28;20387;-71
2023/05/23 03:25:00;;;;;;;0.10;0.10;;;12.80;99.90;;;;;;5014182;28;20024;-71
2023/05/23 03:27:26;;;;;;;0.20;0.20;;;12.80;99.90;;;;;;5013651;28;20121;-71
2023/05/23 03:29:51;;;;;;;0.17;0.17;;;12.80;99.90;;;;;;5013642;28;20026;-71
2023/05/23 03:32:17;;;;;;;0.20;0.20;;;12.90;99.90;;;;;;5018874;28;20152;-71
2023/05/23 03:34:42;;;;;;;0.20;0.20;;;12.90;99.90;;;;;;5033974;28;20021;-71
2023/05/23 03:37:08;;;;;;;0.20;0.20;;;12.90;99.90;;;;;;5033069;28;20025;-71
2023/05/23 03:39:33;;;;;;;0.13;0.13;;;12.90;99.90;;;;;;5033268;28;20364;-70
2023/05/23 03:41:59;;;;;;;0.20;0.20;;;12.90;99.90;;;;;;5029912;28;20037;-71
2023/05/23 03:44:24;;;;;;;0.10;0.10;;;12.90;99.90;;;;;;5018865;28;20021;-71
2023/05/23 03:46:50;;;;;;;0.20;0.20;;;12.90;99.90;;;;;;5026143;28;20048;-71
2023/05/23 03:49:15;;;;;;;0.13;0.13;;;12.90;99.90;;;;;;5026472;28;20025;-71
2023/05/23 03:51:41;;;;;;;0.10;0.10;;;13.00;99.90;;;;;;5032895;28;20112;-70
2023/05/23 03:54:06;;;;;;;0.10;0.10;;;12.90;99.90;;;;;;5031009;28;20514;-71
2023/05/23 03:56:32;;;;;;;0.20;0.20;;;13.00;99.90;;;;;;5032752;28;20096;-71
2023/05/23 03:58:57;;;;;;;0.20;0.20;;;13.00;99.90;;;;;;5032893;28;20513;-71
2023/05/23 04:01:23;;;;;;;0.10;0.10;;;13.00;99.90;;;;;;5033260;28;20034;-70
2023/05/23 04:03:50;;;;;;;0.20;0.20;;;13.00;99.90;;;;;;5033255;28;20434;-70
2023/05/23 04:06:16;;;;;;;0.20;0.20;;;13.10;99.90;;;;;;5033201;28;20060;-71
2023/05/23 04:08:42;;;;;;;0.10;0.10;;;13.10;99.90;;;;;;5032985;28;20427;-70
2023/05/23 04:11:07;;;;;;;0.17;0.17;;;13.10;99.90;;;;;;5032979;28;20100;-70
2023/05/23 04:13:33;;;;;;;0.20;0.20;;;13.10;99.90;;;;;;5032819;28;20068;-70
2023/05/23 04:16:04;;;;;;;0.10;0.10;;;13.10;99.90;;;;;;5032953;28;20026;-70
2023/05/23 04:18:32;;;;;;;0.10;0.10;;;13.10;99.90;;;;;;5032756;28;20021;-70
2023/05/23 04:20:57;;;;;;;0.10;0.10;;;13.10;99.90;;;;;;5032858;28;20025;-70
2023/05/23 04:23:23;;;;;;;0.10;0.10;;;13.10;99.90;;;;;;5033140;28;20025;-70
2023/05/23 04:25:51;;;;;;;0.10;0.10;;;13.10;99.90;;;;;;5037329;28;20037;-70
2023/05/23 04:28:17;;;;;;;0.20;0.20;;;13.10;99.90;;;;;;5036520;28;20037;-70
2023/05/23 04:30:43;;;;;;;0.10;0.10;;;13.00;99.90;;;;;;5037048;28;20028;-69
2023/05/23 04:33:09;;;;;;;0.10;0.10;;;13.00;99.90;;;;;;5036609;28;20376;-70
2023/05/23 04:35:37;;;;;;;0.20;0.20;;;12.90;99.90;;;;;;5036578;28;20029;-70
2023/05/23 04:38:03;;;;;;;0.10;0.10;;;13.00;99.90;;;;;;5036434;28;20100;-70
2023/05/23 04:40:30;;;;;;;0.10;0.10;;;12.90;99.90;;;;;;5036500;28;20026;-70
2023/05/23 04:42:56;;;;;;;0.17;0.17;;;12.90;99.90;;;;;;5036649;28;20025;-70
2023/05/23 04:45:21;;;;;;;0.20;0.20;;;12.90;99.90;;;;;;5036730;28;20423;-70
2023/05/23 04:47:47;;;;;;;0.20;0.20;;;12.90;99.90;;;;;;5036290;28;20091;-70
2023/05/23 04:50:17;;;;;;;0.20;0.20;;;12.90;99.90;;;;;;5036594;28;20501;-70
2023/05/23 04:52:42;;;;;;;0.10;0.10;;;12.90;99.90;;;;;;5035234;28;20397;-70
2023/05/23 04:55:08;;;;;;;0.20;0.20;;;12.90;99.90;;;;;;5036472;28;20100;-70
2023/05/23 04:57:34;;;;;;;0.10;0.10;;;13.00;99.90;;;;;;5036165;28;20053;-71
2023/05/23 05:00:00;;;;;;;0.10;0.10;;;13.00;99.90;;;;;;5036144;28;20053;-70
2023/05/23 05:02:26;;;;;;;0.20;0.20;;;13.00;99.90;;;;;;5036136;28;20061;-70
2023/05/23 05:04:52;;;;;;;0.10;0.10;;;13.00;99.90;;;;;;5036300;28;20076;-70
2023/05/23 05:07:17;;;;;;;0.10;0.10;;;13.00;99.90;;;;;;5036233;28;20037;-70
2023/05/23 05:09:43;;;;;;;0.20;0.20;;;13.10;99.90;;;;;;5036213;28;20023;-70
2023/05/23 05:12:08;;;;;;;0.10;0.10;;;13.10;99.90;;;;;;5035532;28;20025;-70
2023/05/23 05:14:34;;;;;;;0.20;0.20;;;13.10;99.90;;;;;;5035816;28;20026;-71
2023/05/23 05:17:01;;;;;;;0.13;0.13;;;13.20;99.90;;;;;;5035793;28;20426;-71
2023/05/23 05:19:27;;;;;;;0.20;0.20;;;13.20;99.90;;;;;;5035832;28;20410;-70
2023/05/23 05:21:52;;;;;;;0.10;0.10;;;13.20;99.90;;;;;;5035787;28;20025;-70
2023/05/23 05:24:19;;;;;;;0.10;0.10;;;13.10;99.90;;;;;;5035640;28;20036;-70
2023/05/23 05:26:46;;;;;;;0.10;0.10;;;13.10;99.90;;;;;;5035985;28;20082;-70
2023/05/23 05:29:12;;;;;;;0.10;0.10;;;13.10;99.90;;;;;;5035455;28;20044;-70
2023/05/23 05:31:37;;;;;;;0.20;0.20;;;13.10;99.90;;;;;;5035603;28;20025;-70
2023/05/23 05:34:03;;;;;;;0.10;0.10;;;13.10;99.90;;;;;;5035633;28;20127;-70
2023/05/23 05:36:28;;;;;;;0.17;0.17;;;13.10;99.90;;;;;;5034584;28;20025;-69
2023/05/23 05:38:54;;;;;;;0.20;0.20;;;12.90;99.90;;;;;;5035614;28;20078;-70
2023/05/23 05:41:21;;;;;;;0.20;0.20;;;12.90;99.90;;;;;;5035587;28;20013;-70
2023/05/23 05:43:46;;;;;;;0.20;0.20;;;12.80;99.90;;;;;;5035351;28;20021;-70
2023/05/23 05:46:12;;;;;;;0.20;0.20;;;12.60;99.90;;;;;;5035239;28;20120;-70
2023/05/23 05:48:37;;;;;;;0.20;0.20;;;12.50;99.90;;;;;;5035186;28;20026;-70
2023/05/23 05:51:03;;;;;;;0.10;0.10;;;12.40;99.90;;;;;;5035131;28;20368;-70
2023/05/23 05:53:28;;;;;;;0.10;0.10;;;12.30;99.90;;;;;;5035313;28;20542;-70
2023/05/23 05:55:54;;;;;;;0.13;0.13;;;12.20;99.90;;;;;;5035020;28;20135;-70
2023/05/23 05:58:19;;;;;;;0.17;0.17;;;12.10;99.90;;;;;;5034965;28;20089;-71
2023/05/23 06:00:47;;;;;;;0.20;0.20;;;12.10;99.90;;;;;;5035528;28;20018;-71
2023/05/23 06:03:14;;;;;;;0.17;0.17;;;12.00;99.90;;;;;;5035244;28;20030;-70
2023/05/23 06:05:40;;;;;;;0.20;0.20;;;11.90;99.90;;;;;;5035111;28;20112;-70
2023/05/23 06:08:06;;;;;;;0.20;0.20;;;11.90;99.90;;;;;;5034794;28;20105;-70
2023/05/23 06:10:32;;;;;;;0.15;0.15;;;11.80;99.90;;;;;;5034824;28;20611;-70
2023/05/23 06:12:58;;;;;;;0.10;0.10;;;11.80;99.90;;;;;;5034623;28;20040;-70
2023/05/23 06:15:24;;;;;;;0.20;0.20;;;11.70;99.90;;;;;;5034592;28;20029;-71
2023/05/23 06:17:51;;;;;;;0.20;0.20;;;11.60;99.90;;;;;;5034605;28;20022;-70
2023/05/23 06:20:16;;;;;;;0.20;0.20;;;11.50;99.90;;;;;;5035050;28;20391;-70
2023/05/23 06:22:42;;;;;;;0.20;0.20;;;11.50;99.90;;;;;;5034400;28;20029;-70
2023/05/23 06:25:07;;;;;;;0.10;0.10;;;11.50;99.90;;;;;;5034827;28;20025;-70
2023/05/23 06:27:33;;;;;;;0.13;0.13;;;11.50;99.90;;;;;;5034425;28;20033;-70
2023/05/23 06:29:58;;;;;;;0.20;0.20;;;11.50;99.90;;;;;;5034390;28;20395;-70
2023/05/23 06:32:24;;;;;;;0.20;0.20;;;11.40;99.90;;;;;;5034323;28;20033;-70
2023/05/23 06:34:49;;;;;;;0.20;0.20;;;11.40;99.90;;;;;;5034143;28;20033;-69
2023/05/23 06:37:16;;;;;;;0.10;0.10;;;11.30;99.90;;;;;;5034200;28;20037;-70
2023/05/23 06:39:42;;;;;;;0.10;0.10;;;11.30;99.90;;;;;;5033274;28;20394;-70
2023/05/23 06:42:08;;;;;;;0.20;0.20;;;11.30;99.90;;;;;;5034349;28;20021;-70
2023/05/23 06:44:33;;;;;;;0.10;0.10;;;11.30;99.90;;;;;;5034363;28;20398;-69
2023/05/23 06:46:59;;;;;;;0.10;0.10;;;11.30;99.90;;;;;;5033639;28;20514;-70
2023/05/23 06:49:25;;;;;;;0.15;0.15;;;11.30;99.90;;;;;;5034299;28;20029;-69
2023/05/23 06:51:51;;;;;;;0.10;0.10;;;11.30;99.90;;;;;;5033985;28;20025;-70
2023/05/23 06:54:17;;;;;;;0.20;0.20;;;11.30;99.90;;;;;;5034080;28;20048;-69
2023/05/23 06:56:43;;;;;;;0.10;0.10;;;11.30;99.90;;;;;;5033814;28;20029;-71
2023/05/23 06:59:08;;;;;;;0.20;0.20;;;11.30;99.90;;;;;;5034027;28;20017;-69
2023/05/23 07:01:34;;;;;;;0.10;0.10;;;11.30;99.90;;;;;;5033684;28;20029;-69
2023/05/23 07:04:00;;;;;;;0.10;0.10;;;11.30;99.90;;;;;;5028249;28;20497;-71
2023/05/23 07:06:26;;;;;;;0.15;0.15;;;11.30;99.90;;;;;;5019662;28;20041;-70
2023/05/23 07:08:52;;;;;;;0.10;0.10;;;11.40;99.90;;;;;;5013781;28;20105;-70
2023/05/23 07:11:18;;;;;;;0.10;0.10;;;11.40;99.90;;;;;;5013705;28;20068;-69
2023/05/23 07:13:45;;;;;;;0.17;0.17;;;11.40;99.90;;;;;;5013493;28;20018;-69
2023/05/23 07:16:10;;;;;;;0.10;0.10;;;11.40;99.90;;;;;;5013555;28;20029;-71
2023/05/23 07:18:36;;;;;;;0.20;0.20;;;11.40;99.90;;;;;;5022345;28;20399;-70
2023/05/23 07:21:01;;;;;;;0.20;0.20;;;11.40;99.90;;;;;;5033114;28;20072;-70
2023/05/23 07:23:31;;;;;;;0.10;0.10;;;11.40;99.90;;;;;;5032777;28;20029;-70
2023/05/23 07:25:57;;;;;;;0.20;0.20;;;11.40;99.90;;;;;;5033142;28;20086;-70
2023/05/23 07:28:22;;;;;;;0.20;0.20;;;11.40;99.90;;;;;;5032942;28;20042;-70
2023/05/23 07:30:48;;;;;;;0.10;0.10;;;11.40;99.90;;;;;;5032896;28;20029;-70
2023/05/23 07:33:13;;;;;;;0.30;0.30;;;11.30;99.90;;;;;;5032782;28;20116;-70
2023/05/23 07:35:39;;;;;;;0.20;0.20;;;11.30;99.90;;;;;;5033022;28;20021;-70
2023/05/23 07:38:04;;;;;;;0.20;0.20;;;11.30;99.90;;;;;;5032711;28;20042;-70
2023/05/23 07:40:30;;;;;;;0.10;0.10;;;11.20;99.90;;;;;;5032827;28;20045;-70
2023/05/23 07:42:56;;;;;;;0.13;0.13;;;11.20;99.90;;;;;;5033130;28;20028;-70
2023/05/23 07:45:21;;;;;;;0.20;0.20;;;11.10;99.90;;;;;;5032689;28;20021;-69
2023/05/23 07:47:48;;;;;;;0.20;0.20;;;11.20;99.90;;;;;;5032485;28;20052;-71
2023/05/23 07:50:13;;;;;;;0.13;0.13;;;11.20;99.90;;;;;;5032482;28;20022;-70
2023/05/23 07:52:39;;;;;;;0.10;0.10;;;11.20;99.90;;;;;;5032651;28;20083;-69
2023/05/23 07:55:05;;;;;;;0.20;0.20;;;11.20;99.90;;;;;;5032738;28;20014;-70
2023/05/23 07:57:31;;;;;;;0.20;0.20;;;11.20;99.90;;;;;;5032478;28;20372;-70
2023/05/23 07:59:56;;;;;;;0.20;0.20;;;11.30;99.90;;;;;;5030432;28;20144;-70
2023/05/23 08:02:22;;;;;;;0.20;0.20;;;11.40;99.90;;;;;;5032330;28;20017;-70
2023/05/23 08:04:48;;;;;;;0.10;0.10;;;11.50;99.90;;;;;;5032461;28;20522;-70
2023/05/23 08:07:14;;;;;;;0.20;0.20;;;11.60;99.90;;;;;;5032420;28;20030;-70
2023/05/23 08:09:40;;;;;;;0.20;0.20;;;11.60;99.90;;;;;;5032409;28;20039;-70
2023/05/23 08:12:07;;;;;;;0.20;0.20;;;11.60;99.90;;;;;;5032043;28;20033;-70
2023/05/23 08:14:32;;;;;;;0.10;0.10;;;11.60;99.90;;;;;;5017871;28;20041;-70
2023/05/23 08:16:58;;;;;;;0.17;0.17;;;11.60;99.90;;;;;;5012266;28;20022;-70
2023/05/23 08:19:23;;;;;;;0.20;0.20;;;11.60;99.90;;;;;;5020040;28;20018;-70
2023/05/23 08:21:49;;;;;;;0.20;0.20;;;11.60;99.90;;;;;;5032638;28;20032;-70
2023/05/23 08:24:14;;;;;;;0.20;0.20;;;11.70;99.90;;;;;;5032146;28;20451;-70
2023/05/23 08:26:40;;;;;;;0.20;0.20;;;11.80;99.90;;;;;;5032367;28;20091;-71
2023/05/23 08:29:07;;;;;;;0.20;0.20;;;11.90;99.90;;;;;;5032065;28;20471;-69
2023/05/23 08:31:32;;;;;;;0.13;0.13;;;12.00;99.90;;;;;;5027697;28;20406;-69
2023/05/23 08:33:58;;;;;;;0.10;0.10;;;12.00;99.90;;;;;;5019659;28;20029;-69
2023/05/23 08:36:24;;;;;;;0.10;0.10;;;12.00;99.90;;;;;;5032086;28;20022;-70
2023/05/23 08:38:53;;;;;;;0.10;0.10;;;12.00;99.90;;;;;;5032025;28;20022;-69
2023/05/23 08:41:20;;;;;;;0.20;0.20;;;11.90;99.90;;;;;;5032241;28;20036;-69
2023/05/23 08:43:46;;;;;;;0.20;0.20;;;11.80;99.90;;;;;;5032025;28;20173;-70
2023/05/23 08:46:12;;;;;;;0.10;0.10;;;11.80;99.90;;;;;;5032080;28;20128;-70
2023/05/23 08:48:38;;;;;;;0.10;0.10;;;11.80;99.90;;;;;;5031890;28;20025;-70
2023/05/23 08:51:05;;;;;;;0.15;0.15;;;11.70;99.90;;;;;;5032099;28;20037;-70
2023/05/23 08:53:33;;;;;;;0.20;0.20;;;11.70;99.90;;;;;;5031926;28;20091;-69
2023/05/23 08:56:01;;;;;;;0.10;0.10;;;11.60;99.90;;;;;;5031928;28;20025;-70
2023/05/23 08:58:30;;;;;;;0.20;0.20;;;11.60;99.90;;;;;;5032062;28;20026;-70
2023/05/23 09:00:58;;;;;;;0.20;0.20;;;11.60;99.90;;;;;;5031736;28;20037;-69
2023/05/23 09:03:25;;;;;;;0.15;0.15;;;11.60;99.90;;;;;;5031958;28;20032;-69
2023/05/23 09:05:53;;;;;;;0.13;0.13;;;11.50;99.90;;;;;;5031773;28;20394;-69
2023/05/23 09:08:23;;;;;;;0.20;0.20;;;11.60;99.90;;;;;;5032005;28;20037;-70
2023/05/23 09:10:49;;;;;;;0.20;0.20;;;11.70;99.90;;;;;;5033669;28;20025;-70
2023/05/23 09:13:16;;;;;;;0.10;0.10;;;11.70;99.90;;;;;;5035196;28;20076;-69
2023/05/23 09:16:04;;;;;;;0.10;0.10;;;11.70;99.90;;;;;;5035411;28;20025;-69
2023/05/23 09:18:38;;;;;;;0.20;0.20;;;11.90;99.90;;;;;;5035628;28;20088;-70
2023/05/23 09:21:05;;;;;;;0.20;0.20;;;12.00;99.90;;;;;;5035240;28;20028;-69
2023/05/23 09:23:34;;;;;;;0.20;0.20;;;12.10;99.90;;;;;;5034859;28;20498;-70
2023/05/23 09:26:05;;;;;;;0.20;0.20;;;12.10;99.90;;;;;;5033720;28;20456;-70
2023/05/23 09:28:32;;;;;;;0.20;0.20;;;12.20;99.90;;;;;;5035144;28;20029;-70
2023/05/23 09:31:02;;;;;;;0.10;0.10;;;12.30;99.90;;;;;;5034918;28;20225;-69
2023/05/23 09:33:41;;;;;;;0.10;0.10;;;12.50;99.90;;;;;;5035007;28;20026;-69
2023/05/23 09:36:07;;;;;;;0.15;0.15;;;12.70;99.90;;;;;;5034834;28;20390;-69
2023/05/23 09:38:40;;;;;;;0.10;0.10;;;12.80;99.90;;;;;;5035375;28;20017;-70
2023/05/23 09:41:06;;;;;;;0.10;0.10;;;12.90;99.90;;;;;;5034729;28;20506;-69
2023/05/23 09:43:32;;;;;;;0.10;0.10;;;12.80;99.90;;;;;;5034760;28;20506;-70
2023/05/23 09:46:09;;;;;;;0.30;0.30;;;12.70;99.90;;;;;;5033357;28;20068;-70
2023/05/23 09:48:35;;;;;;;0.10;0.10;;;12.70;99.90;;;;;;5034791;28;20017;-70
2023/05/23 09:51:05;;;;;;;0.20;0.20;;;12.60;99.90;;;;;;5033380;28;20026;-69
2023/05/23 09:53:31;;;;;;;0.10;0.10;;;12.70;99.90;;;;;;5034438;28;20029;-70
2023/05/23 09:56:00;;;;;;;0.20;0.20;;;12.60;99.90;;;;;;5034956;28;20096;-70
2023/05/23 09:58:27;;;;;;;0.10;0.10;;;12.70;99.90;;;;;;5034340;28;20048;-69
2023/05/23 10:01:01;;;;;;;0.10;0.10;;;12.90;99.90;;;;;;5034888;28;20018;-70
2023/05/23 10:03:46;;;;;;;0.20;0.20;;;13.00;99.90;;;;;;5034429;28;20029;-70
2023/05/23 10:06:31;;;;;;;0.10;0.10;;;13.00;99.90;;;;;;5034771;28;20041;-70
2023/05/23 10:09:04;;;;;;;0.10;0.10;;;13.20;99.90;;;;;;5034788;28;20103;-70
2023/05/23 10:11:32;;;;;;;0.10;0.10;;;13.20;99.90;;;;;;5034870;28;20384;-70
2023/05/23 10:14:01;;;;;;;0.15;0.15;;;13.20;99.90;;;;;;5034391;28;20033;-70
2023/05/23 10:16:36;;;;;;;0.20;0.20;;;13.40;99.90;;;;;;5035025;28;20068;-70
2023/05/23 10:19:09;;;;;;;0.15;0.15;;;13.50;99.90;;;;;;5034286;28;20064;-71
2023/05/23 10:21:55;;;;;;;0.20;0.20;;;13.40;99.90;;;;;;5034364;28;20075;-71
2023/05/23 10:24:21;;;;;;;0.20;0.20;;;13.30;99.90;;;;;;5034330;28;20034;-71
2023/05/23 10:26:47;;;;;;;0.10;0.10;;;13.10;99.90;;;;;;5034702;28;20418;-70
2023/05/23 10:29:13;;;;;;;0.10;0.10;;;13.10;99.90;;;;;;5034475;28;20504;-70
2023/05/23 10:31:39;;;;;;;0.17;0.17;;;13.20;99.90;;;;;;5034415;28;20160;-70
2023/05/23 10:34:19;;;;;;;0.10;0.10;;;13.40;99.90;;;;;;5033920;28;20487;-70
2023/05/23 10:37:11;;;;;;;0.20;0.20;;;13.50;99.90;;;;;;5034406;28;20024;-70
2023/05/23 10:39:53;;;;;;;0.20;0.20;;;13.50;99.90;;;;;;5027677;28;20048;-70
2023/05/23 10:42:51;;;;;;;0.20;0.20;;;13.50;99.90;;;;;;5034180;28;20056;-70
2023/05/23 10:45:17;;;;;;;0.10;0.10;;;14.10;99.90;;;;;;5034277;28;20410;-70
2023/05/23 10:47:43;;;;;;;0.20;0.20;;;14.40;99.90;;;;;;5034179;28;20053;-70
2023/05/23 10:50:14;;;;;;;0.20;0.20;;;14.00;99.90;;;;;;5033758;28;20018;-71
2023/05/23 10:52:40;;;;;;;0.20;0.20;;;13.70;99.90;;;;;;5034029;28;20017;-70
2023/05/23 10:55:14;;;;;;;0.22;0.22;;;13.70;99.90;;;;;;5033801;28;20441;-70
2023/05/23 10:57:42;;;;;;;0.20;0.20;;;14.00;99.90;;;;;;5033677;28;20029;-69
2023/05/23 11:00:13;;;;;;;0.20;0.20;;;14.10;99.90;;;;;;5033825;28;20037;-70
2023/05/23 11:02:54;;;;;;;0.20;0.20;;;14.00;99.90;;;;;;5033734;28;20112;-70
2023/05/23 11:05:21;;;;;;;0.10;0.10;;;13.60;99.90;;;;;;5033581;28;20048;-70
2023/05/23 11:08:07;;;;;;;0.10;0.10;;;13.60;99.90;;;;;;5033695;28;20025;-71
2023/05/23 11:10:51;;;;;;;0.20;0.20;;;13.90;99.90;;;;;;5033634;28;20031;-71
2023/05/23 11:13:16;;;;;;;0.20;0.20;;;13.80;99.90;;;;;;5033707;28;20025;-70
2023/05/23 11:15:43;;;;;;;0.10;0.10;;;13.80;99.90;;;;;;5033463;28;20029;-71
2023/05/23 11:18:10;;;;;;;0.10;0.10;;;13.80;99.90;;;;;;5032001;28;20026;-70
2023/05/23 11:20:36;;;;;;;0.20;0.20;;;13.80;99.90;;;;;;5032084;28;20079;-70
2023/05/23 11:23:06;;;;;;;0.10;0.10;;;13.80;99.90;;;;;;5033263;28;20040;-70
2023/05/23 11:25:42;;;;;;;0.10;0.10;;;13.80;99.90;;;;;;5033355;28;20032;-71
2023/05/23 11:28:09;;;;;;;0.10;0.10;;;13.90;99.90;;;;;;5033147;28;20103;-70
2023/05/23 11:30:38;;;;;;;0.10;0.10;;;14.20;99.90;;;;;;5033426;28;20572;-70
2023/05/23 11:33:17;;;;;;;0.10;0.10;;;14.20;99.90;;;;;;5032524;28;20040;-71
2023/05/23 11:35:46;;;;;;;0.10;0.10;;;14.70;99.90;;;;;;5033050;28;20053;-68
2023/05/23 11:38:13;;;;;;;0.20;0.20;;;14.80;99.90;;;;;;5033225;28;20067;-68
2023/05/23 11:40:41;;;;;;;0.13;0.13;;;15.00;99.90;;;;;;5032901;28;20022;-68
2023/05/23 11:43:12;;;;;;;0.10;0.10;;;14.90;99.90;;;;;;5033050;28;20033;-73
2023/05/23 11:45:38;;;;;;;0.10;0.10;;;14.40;99.90;;;;;;5032964;28;20060;-73
2023/05/23 11:48:05;;;;;;;0.20;0.20;;;14.50;99.90;;;;;;5033062;28;20057;-74
2023/05/23 11:50:31;;;;;;;0.20;0.20;;;14.90;99.90;;;;;;5032839;28;20022;-73
2023/05/23 11:52:57;;;;;;;0.13;0.13;;;15.10;99.90;;;;;;5032600;28;20380;-73
2023/05/23 11:55:23;;;;;;;0.10;0.10;;;15.20;99.90;;;;;;5032875;28;20022;-74
2023/05/23 11:57:50;;;;;;;0.10;0.10;;;15.10;99.90;;;;;;5032716;28;20041;-73
2023/05/23 12:00:16;;;;;;;0.10;0.10;;;15.20;99.90;;;;;;5032813;28;20084;-73
2023/05/23 12:02:43;;;;;;;0.20;0.20;;;15.10;99.90;;;;;;5032719;28;20520;-73
2023/05/23 12:05:12;;;;;;;0.10;0.10;;;15.00;99.90;;;;;;5032786;28;20030;-73
2023/05/23 12:07:46;;;;;;;0.13;0.13;;;14.80;99.90;;;;;;5032695;28;20065;-73
2023/05/23 12:10:13;;;;;;;0.10;0.10;;;14.40;99.90;;;;;;5032708;28;20036;-73
2023/05/23 12:12:40;;;;;;;0.10;0.10;;;14.70;99.90;;;;;;5032593;28;20041;-73
2023/05/23 12:15:10;;;;;;;0.10;0.10;;;14.40;99.90;;;;;;5032800;28;20076;-73
2023/05/23 12:17:46;;;;;;;0.20;0.20;;;14.00;99.90;;;;;;5032482;28;20060;-73
2023/05/23 12:20:12;;;;;;;0.20;0.20;;;13.90;99.90;;;;;;5032593;28;20024;-73
2023/05/23 12:22:38;;;;;;;0.17;0.17;;;14.10;99.90;;;;;;5032704;28;20433;-73
2023/05/23 12:25:08;;;;;;;0.10;0.10;;;14.10;99.90;;;;;;5032522;28;20396;-73
2023/05/23 12:27:34;;;;;;;0.20;0.20;;;14.00;99.90;;;;;;5032765;28;20402;-73
2023/05/23 12:30:06;;;;;;;0.10;0.10;;;13.90;99.90;;;;;;5032458;28;20026;-73
2023/05/23 12:32:32;;;;;;;0.20;0.20;;;14.00;99.90;;;;;;5032378;28;20435;-73
2023/05/23 12:34:58;;;;;;;0.10;0.10;;;14.10;99.90;;;;;;5032634;28;20033;-73
2023/05/23 12:37:24;;;;;;;0.10;0.10;;;14.20;99.90;;;;;;5032667;28;20430;-73
2023/05/23 12:39:50;;;;;;;0.20;0.20;;;14.60;99.90;;;;;;5032395;28;20585;-73
2023/05/23 12:42:15;;;;;;;0.13;0.13;;;14.50;99.90;;;;;;5032257;28;20104;-73
2023/05/23 12:44:44;;;;;;;0.15;0.15;;;14.40;99.90;;;;;;5033084;28;20033;-73
2023/05/23 12:47:10;;;;;;;0.20;0.20;;;13.90;99.90;;;;;;5034738;28;20033;-73
2023/05/23 12:49:36;;;;;;;0.10;0.10;;;13.90;99.90;;;;;;5035975;28;20112;-73